sensor_id;sensor_type;location;lat;lon;timestamp;pressure;altitude;pressure_sealevel;temperature;humidity
27304;BME280;14791;52.392;13.092;2023-05-12T00:01:11;101288.59;;;22.80;28.61
27304;BME280;14791;52.392;13.092;2023-05-12T00:03:42;101289.25;;;22.78;28.64
27304;BME280;14791;52.392;13.092;2023-05-12T00:06:11;101290.58;;;22.73;28.60
27304;BME280;14791;52.392;13.092;2023-05-12T00:08:40;101286.64;;;22.72;28.68
27304;BME280;14791;52.392;13.092;2023-05-12T00:11:09;101285.98;;;22.70;28.67
27304;BME280;14791;52.392;13.092;2023-05-12T00:13:37;101284.43;;;22.67;28.63
27304;BME280;14791;52.392;13.092;2023-05-12T00:18:35;101276.89;;;22.61;28.65
27304;BME280;14791;52.392;13.092;2023-05-12T00:21:04;101279.28;;;22.60;28.64
27304;BME280;14791;52.392;13.092;2023-05-12T00:23:34;101282.30;;;22.57;28.68
27304;BME280;14791;52.392;13.092;2023-05-12T00:26:04;101283.66;;;22.53;28.69
27304;BME280;14791;52.392;13.092;2023-05-12T00:28:33;101286.16;;;22.50;28.68
27304;BME280;14791;52.392;13.092;2023-05-12T00:31:03;101291.08;;;22.47;28.72
27304;BME280;14791;52.392;13.092;2023-05-12T00:33:32;101285.97;;;22.44;28.72
27304;BME280;14791;52.392;13.092;2023-05-12T00:36:01;101279.12;;;22.40;28.76
27304;BME280;14791;52.392;13.092;2023-05-12T00:38:30;101283.87;;;22.38;28.81
27304;BME280;14791;52.392;13.092;2023-05-12T00:41:01;101289.97;;;22.36;28.78
27304;BME280;14791;52.392;13.092;2023-05-12T00:43:31;101281.11;;;22.34;28.79
27304;BME280;14791;52.392;13.092;2023-05-12T00:46:01;101287.57;;;22.33;28.80
27304;BME280;14791;52.392;13.092;2023-05-12T00:48:33;101285.88;;;22.32;28.81
27304;BME280;14791;52.392;13.092;2023-05-12T00:51:03;101291.98;;;22.29;28.80
27304;BME280;14791;52.392;13.092;2023-05-12T00:53:33;101289.92;;;22.27;28.76
27304;BME280;14791;52.392;13.092;2023-05-12T00:56:02;101291.42;;;22.26;28.83
27304;BME280;14791;52.392;13.092;2023-05-12T00:58:32;101294.80;;;22.24;28.81
27304;BME280;14791;52.392;13.092;2023-05-12T01:01:01;101294.61;;;22.21;28.83
27304;BME280;14791;52.392;13.092;2023-05-12T01:03:30;101299.32;;;22.19;28.79
27304;BME280;14791;52.392;13.092;2023-05-12T01:06:09;101294.91;;;22.18;28.82
27304;BME280;14791;52.392;13.092;2023-05-12T01:08:36;101303.06;;;22.18;28.87
27304;BME280;14791;52.392;13.092;2023-05-12T01:11:06;101297.95;;;22.15;28.83
27304;BME280;14791;52.392;13.092;2023-05-12T01:13:35;101300.81;;;22.14;28.87
27304;BME280;14791;52.392;13.092;2023-05-12T01:16:08;101303.53;;;22.14;28.86
27304;BME280;14791;52.392;13.092;2023-05-12T01:18:39;101301.33;;;22.13;28.89
27304;BME280;14791;52.392;13.092;2023-05-12T01:21:10;101299.97;;;22.13;28.90
27304;BME280;14791;52.392;13.092;2023-05-12T01:23:42;101304.70;;;22.11;28.90
27304;BME280;14791;52.392;13.092;2023-05-12T01:26:12;101306.58;;;22.11;28.94
27304;BME280;14791;52.392;13.092;2023-05-12T01:28:41;101310.66;;;22.11;28.93
27304;BME280;14791;52.392;13.092;2023-05-12T01:31:11;101303.34;;;22.11;28.94
27304;BME280;14791;52.392;13.092;2023-05-12T01:33:41;101305.55;;;22.12;28.92
27304;BME280;14791;52.392;13.092;2023-05-12T01:36:10;101305.41;;;22.13;28.93
27304;BME280;14791;52.392;13.092;2023-05-12T01:38:40;101308.64;;;22.13;28.90
27304;BME280;14791;52.392;13.092;2023-05-12T01:41:08;101306.40;;;22.12;28.92
27304;BME280;14791;52.392;13.092;2023-05-12T01:43:37;101304.70;;;22.11;28.87
27304;BME280;14791;52.392;13.092;2023-05-12T01:46:07;101307.09;;;22.10;28.90
27304;BME280;14791;52.392;13.092;2023-05-12T01:48:39;101307.23;;;22.08;28.90
27304;BME280;14791;52.392;13.092;2023-05-12T01:51:08;101304.32;;;22.06;28.90
27304;BME280;14791;52.392;13.092;2023-05-12T01:53:38;101309.06;;;22.04;28.94
27304;BME280;14791;52.392;13.092;2023-05-12T01:56:07;101319.23;;;22.02;28.91
27304;BME280;14791;52.392;13.092;2023-05-12T01:58:36;101318.53;;;22.00;28.93
27304;BME280;14791;52.392;13.092;2023-05-12T02:01:05;101311.71;;;21.96;28.97
27304;BME280;14791;52.392;13.092;2023-05-12T02:03:34;101310.64;;;21.93;29.01
27304;BME280;14791;52.392;13.092;2023-05-12T02:06:06;101309.45;;;21.91;29.04
27304;BME280;14791;52.392;13.092;2023-05-12T02:08:36;101316.54;;;21.88;29.02
27304;BME280;14791;52.392;13.092;2023-05-12T02:11:07;101319.06;;;21.85;29.04
27304;BME280;14791;52.392;13.092;2023-05-12T02:13:36;101315.30;;;21.82;29.08
27304;BME280;14791;52.392;13.092;2023-05-12T02:16:06;101327.48;;;21.78;29.10
27304;BME280;14791;52.392;13.092;2023-05-12T02:18:35;101327.80;;;21.75;29.20
27304;BME280;14791;52.392;13.092;2023-05-12T02:21:05;101325.22;;;21.74;29.24
27304;BME280;14791;52.392;13.092;2023-05-12T02:23:35;101328.45;;;21.73;29.32
27304;BME280;14791;52.392;13.092;2023-05-12T02:26:04;101326.05;;;21.70;29.35
27304;BME280;14791;52.392;13.092;2023-05-12T02:28:33;101328.77;;;21.70;29.42
27304;BME280;14791;52.392;13.092;2023-05-12T02:31:02;101327.41;;;21.70;29.50
27304;BME280;14791;52.392;13.092;2023-05-12T02:33:31;101325.54;;;21.71;29.52
27304;BME280;14791;52.392;13.092;2023-05-12T02:36:00;101323.84;;;21.70;29.51
27304;BME280;14791;52.392;13.092;2023-05-12T02:38:29;101329.76;;;21.69;29.59
27304;BME280;14791;52.392;13.092;2023-05-12T02:40:58;101323.98;;;21.68;29.60
27304;BME280;14791;52.392;13.092;2023-05-12T02:43:28;101320.93;;;21.67;29.67
27304;BME280;14791;52.392;13.092;2023-05-12T02:45:57;101329.94;;;21.68;29.71
27304;BME280;14791;52.392;13.092;2023-05-12T02:48:27;101321.58;;;21.65;29.70
27304;BME280;14791;52.392;13.092;2023-05-12T02:50:56;101329.37;;;21.64;29.77
27304;BME280;14791;52.392;13.092;2023-05-12T02:53:25;101319.52;;;21.63;29.79
27304;BME280;14791;52.392;13.092;2023-05-12T02:55:55;101324.95;;;21.63;29.80
27304;BME280;14791;52.392;13.092;2023-05-12T02:58:24;101325.09;;;21.61;29.84
27304;BME280;14791;52.392;13.092;2023-05-12T03:00:53;101327.47;;;21.60;29.90
27304;BME280;14791;52.392;13.092;2023-05-12T03:03:22;101323.53;;;21.59;29.95
27304;BME280;14791;52.392;13.092;2023-05-12T03:05:51;101329.15;;;21.57;29.98
27304;BME280;14791;52.392;13.092;2023-05-12T03:08:20;101326.56;;;21.56;29.99
27304;BME280;14791;52.392;13.092;2023-05-12T03:10:49;101324.84;;;21.55;29.99
27304;BME280;14791;52.392;13.092;2023-05-12T03:13:18;101325.02;;;21.53;29.99
27304;BME280;14791;52.392;13.092;2023-05-12T03:15:47;101333.48;;;21.50;30.01
27304;BME280;14791;52.392;13.092;2023-05-12T03:18:16;101331.89;;;21.48;30.00
27304;BME280;14791;52.392;13.092;2023-05-12T03:20:44;101332.20;;;21.44;30.08
27304;BME280;14791;52.392;13.092;2023-05-12T03:23:13;101338.80;;;21.42;30.11
27304;BME280;14791;52.392;13.092;2023-05-12T03:25:44;101334.86;;;21.40;30.17
27304;BME280;14791;52.392;13.092;2023-05-12T03:28:13;101334.52;;;21.39;30.17
27304;BME280;14791;52.392;13.092;2023-05-12T03:30:42;101338.59;;;21.39;30.19
27304;BME280;14791;52.392;13.092;2023-05-12T03:33:11;101333.64;;;21.39;30.24
27304;BME280;14791;52.392;13.092;2023-05-12T03:35:40;101340.94;;;21.38;30.23
27304;BME280;14791;52.392;13.092;2023-05-12T03:38:09;101343.66;;;21.38;30.20
27304;BME280;14791;52.392;13.092;2023-05-12T03:40:39;101348.21;;;21.38;30.19
27304;BME280;14791;52.392;13.092;2023-05-12T03:43:09;101350.25;;;21.36;30.14
27304;BME280;14791;52.392;13.092;2023-05-12T03:45:39;101354.80;;;21.35;30.17
27304;BME280;14791;52.392;13.092;2023-05-12T03:48:08;101348.83;;;21.32;30.19
27304;BME280;14791;52.392;13.092;2023-05-12T03:50:37;101352.70;;;21.29;30.22
27304;BME280;14791;52.392;13.092;2023-05-12T03:53:06;101351.28;;;21.25;30.26
27304;BME280;14791;52.392;13.092;2023-05-12T03:55:35;101352.58;;;21.21;30.28
27304;BME280;14791;52.392;13.092;2023-05-12T03:58:04;101346.73;;;21.16;30.25
27304;BME280;14791;52.392;13.092;2023-05-12T04:00:33;101351.63;;;21.12;30.30
27304;BME280;14791;52.392;13.092;2023-05-12T04:03:02;101350.34;;;21.07;30.42
27304;BME280;14791;52.392;13.092;2023-05-12T04:05:31;101347.93;;;21.03;30.46
27304;BME280;14791;52.392;13.092;2023-05-12T04:08:00;101356.31;;;20.96;30.49
27304;BME280;14791;52.392;13.092;2023-05-12T04:10:29;101355.91;;;20.91;30.56
27304;BME280;14791;52.392;13.092;2023-05-12T04:12:58;101355.49;;;20.86;30.63
27304;BME280;14791;52.392;13.092;2023-05-12T04:15:27;101358.14;;;20.82;30.68
27304;BME280;14791;52.392;13.092;2023-05-12T04:17:56;101366.20;;;20.78;30.76
27304;BME280;14791;52.392;13.092;2023-05-12T04:20:25;101370.23;;;20.74;30.75
27304;BME280;14791;52.392;13.092;2023-05-12T04:22:54;101367.45;;;20.70;30.84
27304;BME280;14791;52.392;13.092;2023-05-12T04:25:23;101364.31;;;20.65;30.87
27304;BME280;14791;52.392;13.092;2023-05-12T04:27:53;101361.53;;;20.60;30.98
27304;BME280;14791;52.392;13.092;2023-05-12T04:30:22;101360.47;;;20.57;30.99
27304;BME280;14791;52.392;13.092;2023-05-12T04:32:51;101366.41;;;20.57;31.09
27304;BME280;14791;52.392;13.092;2023-05-12T04:35:20;101363.08;;;20.53;31.08
27304;BME280;14791;52.392;13.092;2023-05-12T04:37:50;101367.15;;;20.53;31.15
27304;BME280;14791;52.392;13.092;2023-05-12T04:40:19;101368.30;;;20.51;31.22
27304;BME280;14791;52.392;13.092;2023-05-12T04:42:48;101365.03;;;20.47;31.24
27304;BME280;14791;52.392;13.092;2023-05-12T04:45:17;101373.16;;;20.47;31.30
27304;BME280;14791;52.392;13.092;2023-05-12T04:47:46;101376.86;;;20.46;31.29
27304;BME280;14791;52.392;13.092;2023-05-12T04:50:15;101381.06;;;20.45;31.37
27304;BME280;14791;52.392;13.092;2023-05-12T04:52:44;101373.09;;;20.43;31.41
27304;BME280;14791;52.392;13.092;2023-05-12T04:55:13;101377.16;;;20.43;31.47
27304;BME280;14791;52.392;13.092;2023-05-12T04:57:42;101386.28;;;20.42;31.46
27304;BME280;14791;52.392;13.092;2023-05-12T05:00:12;101381.36;;;20.42;31.48
27304;BME280;14791;52.392;13.092;2023-05-12T05:02:43;101383.22;;;20.41;31.49
27304;BME280;14791;52.392;13.092;2023-05-12T05:05:11;101386.44;;;20.40;31.51
27304;BME280;14791;52.392;13.092;2023-05-12T05:07:40;101391.87;;;20.40;31.58
27304;BME280;14791;52.392;13.092;2023-05-12T05:10:10;101388.31;;;20.40;31.55
27304;BME280;14791;52.392;13.092;2023-05-12T05:12:40;101394.08;;;20.41;31.57
27304;BME280;14791;52.392;13.092;2023-05-12T05:15:10;101397.42;;;20.39;31.57
27304;BME280;14791;52.392;13.092;2023-05-12T05:17:39;101400.14;;;20.39;31.63
27304;BME280;14791;52.392;13.092;2023-05-12T05:20:10;101403.23;;;20.40;31.72
27304;BME280;14791;52.392;13.092;2023-05-12T05:22:40;101410.99;;;20.39;31.61
27304;BME280;14791;52.392;13.092;2023-05-12T05:25:10;101410.99;;;20.39;31.65
27304;BME280;14791;52.392;13.092;2023-05-12T05:27:40;101406.92;;;20.39;31.68
27304;BME280;14791;52.392;13.092;2023-05-12T05:30:09;101405.22;;;20.38;31.69
27304;BME280;14791;52.392;13.092;2023-05-12T05:32:39;101410.99;;;20.39;31.73
27304;BME280;14791;52.392;13.092;2023-05-12T05:35:08;101409.63;;;20.39;31.77
27304;BME280;14791;52.392;13.092;2023-05-12T05:37:39;101419.84;;;20.41;31.79
27304;BME280;14791;52.392;13.092;2023-05-12T05:40:09;101417.14;;;20.41;31.82
27304;BME280;14791;52.392;13.092;2023-05-12T05:42:38;101420.19;;;20.42;31.83
27304;BME280;14791;52.392;13.092;2023-05-12T05:45:08;101419.72;;;20.43;31.81
27304;BME280;14791;52.392;13.092;2023-05-12T05:47:37;101424.00;;;20.45;31.89
27304;BME280;14791;52.392;13.092;2023-05-12T05:50:08;101427.27;;;20.49;31.92
27304;BME280;14791;52.392;13.092;2023-05-12T05:52:39;101423.28;;;20.53;31.95
27304;BME280;14791;52.392;13.092;2023-05-12T05:55:08;101423.23;;;20.58;31.90
27304;BME280;14791;52.392;13.092;2023-05-12T05:57:38;101427.73;;;20.64;31.92
27304;BME280;14791;52.392;13.092;2023-05-12T06:00:08;101424.80;;;20.71;31.90
27304;BME280;14791;52.392;13.092;2023-05-12T06:02:44;101430.51;;;20.77;31.82
27304;BME280;14791;52.392;13.092;2023-05-12T06:05:15;101433.17;;;20.83;31.73
27304;BME280;14791;52.392;13.092;2023-05-12T06:07:44;101436.30;;;20.88;31.65
27304;BME280;14791;52.392;13.092;2023-05-12T06:10:13;101432.64;;;20.93;31.60
27304;BME280;14791;52.392;13.092;2023-05-12T06:12:42;101435.14;;;21.00;31.53
27304;BME280;14791;52.392;13.092;2023-05-12T06:15:11;101437.76;;;21.06;31.55
27304;BME280;14791;52.392;13.092;2023-05-12T06:17:40;101434.47;;;21.12;31.47
27304;BME280;14791;52.392;13.092;2023-05-12T06:20:09;101441.51;;;21.19;31.43
27304;BME280;14791;52.392;13.092;2023-05-12T06:22:40;101435.84;;;21.26;31.38
27304;BME280;14791;52.392;13.092;2023-05-12T06:25:12;101435.12;;;21.34;31.36
27304;BME280;14791;52.392;13.092;2023-05-12T06:27:40;101436.76;;;21.40;31.27
27304;BME280;14791;52.392;13.092;2023-05-12T06:30:10;101442.67;;;21.50;31.27
27304;BME280;14791;52.392;13.092;2023-05-12T06:32:39;101436.14;;;21.56;31.22
27304;BME280;14791;52.392;13.092;2023-05-12T06:35:08;101441.84;;;21.63;31.03
27304;BME280;14791;52.392;13.092;2023-05-12T06:37:37;101446.89;;;21.72;30.91
27304;BME280;14791;52.392;13.092;2023-05-12T06:40:07;101444.77;;;21.79;30.84
27304;BME280;14791;52.392;13.092;2023-05-12T06:42:36;101443.16;;;21.86;30.85
27304;BME280;14791;52.392;13.092;2023-05-12T06:45:07;101441.18;;;21.93;30.79
27304;BME280;14791;52.392;13.092;2023-05-12T06:47:38;101452.52;;;22.02;30.78
27304;BME280;14791;52.392;13.092;2023-05-12T06:50:07;101451.27;;;22.10;30.72
27304;BME280;14791;52.392;13.092;2023-05-12T06:52:36;101446.55;;;22.16;30.61
27304;BME280;14791;52.392;13.092;2023-05-12T06:55:06;101446.70;;;22.24;30.60
27304;BME280;14791;52.392;13.092;2023-05-12T06:57:35;101445.74;;;22.34;30.48
27304;BME280;14791;52.392;13.092;2023-05-12T07:00:05;101448.56;;;22.42;30.39
27304;BME280;14791;52.392;13.092;2023-05-12T07:02:34;101446.28;;;22.51;30.44
27304;BME280;14791;52.392;13.092;2023-05-12T07:05:04;101441.92;;;22.58;30.32
27304;BME280;14791;52.392;13.092;2023-05-12T07:07:33;101446.07;;;22.66;30.21
27304;BME280;14791;52.392;13.092;2023-05-12T07:10:03;101444.77;;;22.75;30.14
27304;BME280;14791;52.392;13.092;2023-05-12T07:12:33;101451.30;;;22.82;30.03
27304;BME280;14791;52.392;13.092;2023-05-12T07:15:02;101446.92;;;22.89;29.77
27304;BME280;14791;52.392;13.092;2023-05-12T07:17:31;101438.14;;;22.95;29.64
27304;BME280;14791;52.392;13.092;2023-05-12T07:20:00;101447.27;;;23.04;29.70
27304;BME280;14791;52.392;13.092;2023-05-12T07:22:31;101441.16;;;23.10;29.64
27304;BME280;14791;52.392;13.092;2023-05-12T07:25:00;101436.45;;;23.16;29.46
27304;BME280;14791;52.392;13.092;2023-05-12T07:27:29;101439.73;;;23.24;29.42
27304;BME280;14791;52.392;13.092;2023-05-12T07:29:58;101440.98;;;23.33;29.52
27304;BME280;14791;52.392;13.092;2023-05-12T07:32:27;101436.45;;;23.42;29.31
27304;BME280;14791;52.392;13.092;2023-05-12T07:34:56;101445.69;;;23.49;29.23
27304;BME280;14791;52.392;13.092;2023-05-12T07:37:25;101448.81;;;23.59;29.36
27304;BME280;14791;52.392;13.092;2023-05-12T07:39:53;101440.66;;;23.67;29.00
27304;BME280;14791;52.392;13.092;2023-05-12T07:42:23;101448.89;;;23.75;28.80
27304;BME280;14791;52.392;13.092;2023-05-12T07:44:51;101444.67;;;23.85;28.72
27304;BME280;14791;52.392;13.092;2023-05-12T07:47:20;101446.59;;;23.92;28.48
27304;BME280;14791;52.392;13.092;2023-05-12T07:49:49;101441.84;;;24.03;28.33
27304;BME280;14791;52.392;13.092;2023-05-12T07:52:18;101439.31;;;24.09;28.30
27304;BME280;14791;52.392;13.092;2023-05-12T07:54:47;101447.88;;;24.18;28.17
27304;BME280;14791;52.392;13.092;2023-05-12T07:57:16;101445.67;;;24.26;28.36
27304;BME280;14791;52.392;13.092;2023-05-12T07:59:45;101440.73;;;24.34;27.99
27304;BME280;14791;52.392;13.092;2023-05-12T08:02:14;101453.02;;;24.42;28.04
27304;BME280;14791;52.392;13.092;2023-05-12T08:04:44;101447.77;;;24.49;27.74
27304;BME280;14791;52.392;13.092;2023-05-12T08:07:13;101451.54;;;24.56;28.00
27304;BME280;14791;52.392;13.092;2023-05-12T08:09:42;101434.13;;;24.61;27.54
27304;BME280;14791;52.392;13.092;2023-05-12T08:12:11;101454.28;;;24.68;27.66
27304;BME280;14791;52.392;13.092;2023-05-12T08:14:40;101457.70;;;24.74;27.40
27304;BME280;14791;52.392;13.092;2023-05-12T08:17:09;101450.17;;;24.80;27.35
27304;BME280;14791;52.392;13.092;2023-05-12T08:19:38;101453.61;;;24.87;26.92
27304;BME280;14791;52.392;13.092;2023-05-12T08:22:07;101440.28;;;24.92;26.70
27304;BME280;14791;52.392;13.092;2023-05-12T08:24:36;101442.67;;;24.99;26.46
27304;BME280;14791;52.392;13.092;2023-05-12T08:27:06;101436.16;;;25.04;26.46
27304;BME280;14791;52.392;13.092;2023-05-12T08:29:35;101441.80;;;25.11;26.58
27304;BME280;14791;52.392;13.092;2023-05-12T08:32:04;101441.28;;;25.15;26.59
27304;BME280;14791;52.392;13.092;2023-05-12T08:34:34;101445.42;;;25.19;26.26
27304;BME280;14791;52.392;13.092;2023-05-12T08:37:03;101454.95;;;25.23;26.10
27304;BME280;14791;52.392;13.092;2023-05-12T08:39:33;101445.39;;;25.28;26.04
27304;BME280;14791;52.392;13.092;2023-05-12T08:42:06;101452.23;;;25.32;26.30
27304;BME280;14791;52.392;13.092;2023-05-12T08:44:39;101447.61;;;25.36;26.01
27304;BME280;14791;52.392;13.092;2023-05-12T08:47:08;101452.20;;;25.40;26.77
27304;BME280;14791;52.392;13.092;2023-05-12T08:49:41;101460.40;;;25.44;25.93
27304;BME280;14791;52.392;13.092;2023-05-12T08:52:11;101441.25;;;25.48;25.82
27304;BME280;14791;52.392;13.092;2023-05-12T08:54:44;101446.69;;;25.52;25.75
27304;BME280;14791;52.392;13.092;2023-05-12T08:57:13;101453.00;;;25.57;25.57
27304;BME280;14791;52.392;13.092;2023-05-12T08:59:46;101438.47;;;25.60;25.36
27304;BME280;14791;52.392;13.092;2023-05-12T09:02:16;101441.85;;;25.66;25.25
27304;BME280;14791;52.392;13.092;2023-05-12T09:04:46;101437.42;;;25.70;25.03
27304;BME280;14791;52.392;13.092;2023-05-12T09:07:15;101441.48;;;25.74;24.92
27304;BME280;14791;52.392;13.092;2023-05-12T09:09:48;101440.46;;;25.79;24.80
27304;BME280;14791;52.392;13.092;2023-05-12T09:12:18;101435.47;;;25.82;24.57
27304;BME280;14791;52.392;13.092;2023-05-12T09:14:52;101432.76;;;25.86;24.57
27304;BME280;14791;52.392;13.092;2023-05-12T09:17:20;101436.33;;;25.91;24.15
27304;BME280;14791;52.392;13.092;2023-05-12T09:19:49;101444.01;;;25.96;24.06
27304;BME280;14791;52.392;13.092;2023-05-12T09:22:29;101433.54;;;25.99;24.28
27304;BME280;14791;52.392;13.092;2023-05-12T09:24:58;101432.16;;;26.03;24.10
27304;BME280;14791;52.392;13.092;2023-05-12T09:27:28;101443.78;;;26.05;24.00
27304;BME280;14791;52.392;13.092;2023-05-12T09:29:57;101442.05;;;26.08;24.47
27304;BME280;14791;52.392;13.092;2023-05-12T09:32:33;101442.53;;;26.12;23.90
27304;BME280;14791;52.392;13.092;2023-05-12T09:35:08;101429.67;;;26.17;24.16
27304;BME280;14791;52.392;13.092;2023-05-12T09:37:39;101440.95;;;26.22;23.66
27304;BME280;14791;52.392;13.092;2023-05-12T09:40:09;101445.38;;;26.27;23.90
27304;BME280;14791;52.392;13.092;2023-05-12T09:42:41;101442.41;;;26.33;23.44
27304;BME280;14791;52.392;13.092;2023-05-12T09:45:12;101442.72;;;26.38;23.59
27304;BME280;14791;52.392;13.092;2023-05-12T09:47:42;101441.50;;;26.40;23.81
27304;BME280;14791;52.392;13.092;2023-05-12T09:50:12;101435.01;;;26.41;23.27
27304;BME280;14791;52.392;13.092;2023-05-12T09:52:41;101428.80;;;26.43;23.31
27304;BME280;14791;52.392;13.092;2023-05-12T09:55:11;101436.68;;;26.46;23.26
27304;BME280;14791;52.392;13.092;2023-05-12T09:57:42;101431.15;;;26.50;23.15
27304;BME280;14791;52.392;13.092;2023-05-12T10:00:13;101431.16;;;26.55;23.30
27304;BME280;14791;52.392;13.092;2023-05-12T10:02:46;101448.25;;;26.61;23.11
27304;BME280;14791;52.392;13.092;2023-05-12T10:05:18;101440.33;;;26.66;23.04
27304;BME280;14791;52.392;13.092;2023-05-12T10:07:49;101439.25;;;26.71;22.80
27304;BME280;14791;52.392;13.092;2023-05-12T10:10:22;101431.33;;;26.76;22.61
27304;BME280;14791;52.392;13.092;2023-05-12T10:12:50;101436.26;;;26.81;23.00
27304;BME280;14791;52.392;13.092;2023-05-12T10:15:20;101437.25;;;26.84;22.87
27304;BME280;14791;52.392;13.092;2023-05-12T10:17:51;101428.16;;;26.87;22.73
27304;BME280;14791;52.392;13.092;2023-05-12T10:20:24;101437.20;;;26.92;22.84
27304;BME280;14791;52.392;13.092;2023-05-12T10:22:56;101426.70;;;26.95;22.91
27304;BME280;14791;52.392;13.092;2023-05-12T10:25:27;101418.62;;;26.98;22.91
27304;BME280;14791;52.392;13.092;2023-05-12T10:27:56;101420.80;;;27.03;22.74
27304;BME280;14791;52.392;13.092;2023-05-12T10:30:27;101416.34;;;27.06;22.64
27304;BME280;14791;52.392;13.092;2023-05-12T10:32:56;101414.06;;;27.09;22.56
27304;BME280;14791;52.392;13.092;2023-05-12T10:35:34;101420.88;;;27.13;23.34
27304;BME280;14791;52.392;13.092;2023-05-12T10:38:10;101418.60;;;27.17;23.26
27304;BME280;14791;52.392;13.092;2023-05-12T10:41:00;101410.37;;;27.21;23.15
27304;BME280;14791;52.392;13.092;2023-05-12T10:43:42;101413.75;;;27.27;22.95
27304;BME280;14791;52.392;13.092;2023-05-12T10:46:19;101413.54;;;27.29;23.17
27304;BME280;14791;52.392;13.092;2023-05-12T10:51:58;101423.20;;;27.40;22.63
27304;BME280;14791;52.392;13.092;2023-05-12T10:54:05;101416.28;;;27.44;22.55
27304;BME280;14791;52.392;13.092;2023-05-12T10:59:16;101409.30;;;27.56;22.68
27304;BME280;14791;52.392;13.092;2023-05-12T11:02:00;101407.68;;;27.62;22.52
27304;BME280;14791;52.392;13.092;2023-05-12T11:04:40;101415.34;;;27.66;22.54
27304;BME280;14791;52.392;13.092;2023-05-12T11:07:10;101410.83;;;27.69;22.47
27304;BME280;14791;52.392;13.092;2023-05-12T11:09:41;101408.70;;;27.75;23.17
27304;BME280;14791;52.392;13.092;2023-05-12T11:12:12;101415.48;;;27.84;22.77
27304;BME280;14791;52.392;13.092;2023-05-12T11:14:43;101411.27;;;27.92;22.73
27304;BME280;14791;52.392;13.092;2023-05-12T11:17:13;101408.39;;;28.00;22.42
27304;BME280;14791;52.392;13.092;2023-05-12T11:19:48;101403.30;;;28.08;22.39
27304;BME280;14791;52.392;13.092;2023-05-12T11:22:19;101401.48;;;28.15;22.34
27304;BME280;14791;52.392;13.092;2023-05-12T11:24:49;101394.70;;;28.21;22.25
27304;BME280;14791;52.392;13.092;2023-05-12T11:27:20;101400.58;;;28.29;22.22
27304;BME280;14791;52.392;13.092;2023-05-12T11:29:57;101405.97;;;28.37;22.18
27304;BME280;14791;52.392;13.092;2023-05-12T11:32:27;101406.70;;;28.46;22.96
27304;BME280;14791;52.392;13.092;2023-05-12T11:35:11;101399.71;;;28.54;22.37
27304;BME280;14791;52.392;13.092;2023-05-12T11:37:42;101410.15;;;28.66;22.44
27304;BME280;14791;52.392;13.092;2023-05-12T11:40:19;101415.52;;;28.74;22.25
27304;BME280;14791;52.392;13.092;2023-05-12T11:42:50;101410.52;;;28.84;22.26
27304;BME280;14791;52.392;13.092;2023-05-12T11:45:28;101406.90;;;28.94;22.35
27304;BME280;14791;52.392;13.092;2023-05-12T11:48:09;101406.55;;;29.04;21.92
27304;BME280;14791;52.392;13.092;2023-05-12T11:50:41;101414.81;;;29.15;21.74
27304;BME280;14791;52.392;13.092;2023-05-12T11:53:11;101413.08;;;29.24;21.58
27304;BME280;14791;52.392;13.092;2023-05-12T11:55:49;101423.00;;;29.36;21.68
27304;BME280;14791;52.392;13.092;2023-05-12T11:58:20;101420.30;;;29.50;21.49
27304;BME280;14791;52.392;13.092;2023-05-12T12:00:49;101407.95;;;29.67;21.39
27304;BME280;14791;52.392;13.092;2023-05-12T12:03:18;101410.81;;;29.94;21.29
27304;BME280;14791;52.392;13.092;2023-05-12T12:06:04;101416.25;;;30.35;21.12
27304;BME280;14791;52.392;13.092;2023-05-12T12:08:28;101419.17;;;30.91;21.04
27304;BME280;14791;52.392;13.092;2023-05-12T12:10:58;101416.23;;;31.55;20.60
27304;BME280;14791;52.392;13.092;2023-05-12T12:13:27;101423.02;;;32.11;19.95
27304;BME280;14791;52.392;13.092;2023-05-12T12:15:56;101418.58;;;32.41;19.49
27304;BME280;14791;52.392;13.092;2023-05-12T12:18:25;101431.27;;;32.56;18.85
27304;BME280;14791;52.392;13.092;2023-05-12T12:20:54;101415.52;;;32.72;18.67
27304;BME280;14791;52.392;13.092;2023-05-12T12:23:23;101412.38;;;33.03;18.61
27304;BME280;14791;52.392;13.092;2023-05-12T12:25:51;101407.67;;;33.47;18.76
27304;BME280;14791;52.392;13.092;2023-05-12T12:28:20;101413.80;;;33.95;18.78
27304;BME280;14791;52.392;13.092;2023-05-12T12:30:49;101415.72;;;34.43;18.27
27304;BME280;14791;52.392;13.092;2023-05-12T12:33:18;101423.36;;;35.04;18.46
27304;BME280;14791;52.392;13.092;2023-05-12T12:35:47;101422.19;;;35.73;17.86
27304;BME280;14791;52.392;13.092;2023-05-12T12:38:16;101423.59;;;36.45;17.89
27304;BME280;14791;52.392;13.092;2023-05-12T12:40:45;101424.81;;;37.17;17.09
27304;BME280;14791;52.392;13.092;2023-05-12T12:43:20;101425.95;;;37.79;16.43
27304;BME280;14791;52.392;13.092;2023-05-12T12:45:44;101405.38;;;38.35;15.87
27304;BME280;14791;52.392;13.092;2023-05-12T12:48:13;101418.66;;;38.82;15.54
27304;BME280;14791;52.392;13.092;2023-05-12T12:50:42;101426.70;;;39.08;15.16
27304;BME280;14791;52.392;13.092;2023-05-12T12:53:11;101424.32;;;39.32;14.75
27304;BME280;14791;52.392;13.092;2023-05-12T12:55:40;101424.17;;;39.51;14.60
27304;BME280;14791;52.392;13.092;2023-05-12T12:58:09;101430.64;;;39.67;14.35
27304;BME280;14791;52.392;13.092;2023-05-12T13:00:38;101432.09;;;39.75;14.65
27304;BME280;14791;52.392;13.092;2023-05-12T13:03:07;101410.61;;;39.81;14.08